Time;durP1;ratioP1;P1;durP2;ratioP2;P2;SDS_P1;SDS_P2;PMS_P1;PMS_P2;Temp;Humidity;BMP_temperature;BMP_pressure;BME280_temperature;BME280_humidity;BME280_pressure;Samples;Min_cycle;Max_cycle;Signal;HPM_P1;HPM_P2
2022/05/28 00:01:33;;;;;;;4.13;1.03;;;;;;;8.50;100.00;100939.59;5086438;28;20227;-52
2022/05/28 00:04:04;;;;;;;3.10;1.43;;;;;;;8.46;100.00;100943.03;5072676;28;20605;-53
2022/05/28 00:06:34;;;;;;;4.97;1.50;;;;;;;8.50;100.00;100944.81;5076282;28;20279;-52
2022/05/28 00:09:01;;;;;;;4.83;1.20;;;;;;;8.62;100.00;100932.72;5072953;28;20227;-52
2022/05/28 00:11:29;;;;;;;2.77;1.17;;;;;;;8.57;100.00;100924.84;5079506;28;20227;-52
2022/05/28 00:13:56;;;;;;;3.30;1.20;;;;;;;8.57;100.00;100924.84;5078201;28;20387;-55
2022/05/28 00:16:22;;;;;;;2.90;1.30;;;;;;;8.63;100.00;100930.09;5077176;28;20239;-51
2022/05/28 00:18:51;;;;;;;6.77;2.10;;;;;;;8.72;100.00;100924.97;5076899;28;20254;-52
2022/05/28 00:21:19;;;;;;;2.37;1.47;;;;;;;8.55;100.00;100922.19;5066237;28;20634;-51
2022/05/28 00:23:47;;;;;;;3.57;1.40;;;;;;;8.58;100.00;100927.44;5074784;28;20467;-52
2022/05/28 00:26:14;;;;;;;3.30;1.37;;;;;;;8.69;100.00;100918.84;5078415;28;20723;-52
2022/05/28 00:28:40;;;;;;;2.30;1.23;;;;;;;8.69;100.00;100918.84;5075100;28;20281;-52
2022/05/28 00:31:07;;;;;;;3.13;1.93;;;;;;;8.69;100.00;100916.22;5082999;28;20231;-51
2022/05/28 00:33:34;;;;;;;5.20;1.67;;;;;;;8.86;100.00;100913.75;5082295;28;20244;-51
2022/05/28 00:36:01;;;;;;;5.47;1.60;;;;;;;8.79;100.00;100911.09;5073059;28;20307;-52
2022/05/28 00:38:28;;;;;;;6.57;1.73;;;;;;;8.82;100.00;100918.09;5073141;28;20250;-52
2022/05/28 00:40:58;;;;;;;9.03;2.23;;;;;;;8.81;100.00;100913.72;5075486;28;20234;-52
2022/05/28 00:43:26;;;;;;;4.67;1.80;;;;;;;8.90;100.00;100911.19;5074899;28;20231;-52
2022/05/28 00:45:59;;;;;;;3.37;1.33;;;;;;;8.86;100.00;100909.41;5075329;28;20231;-52
2022/05/28 00:48:29;;;;;;;5.47;1.73;;;;;;;8.87;100.00;100898.06;5073782;28;20223;-52
2022/05/28 00:50:56;;;;;;;5.83;1.20;;;;;;;8.95;100.00;100900.72;5082487;28;20654;-51
2022/05/28 00:53:22;;;;;;;5.30;1.77;;;;;;;8.87;100.00;100903.28;5076289;28;20231;-52
2022/05/28 00:55:49;;;;;;;5.50;1.40;;;;;;;8.89;100.00;100895.47;5081536;28;20234;-53
2022/05/28 00:58:16;;;;;;;6.40;2.00;;;;;;;8.89;100.00;100890.22;5076690;28;20706;-53
2022/05/28 01:00:45;;;;;;;4.20;1.27;;;;;;;8.92;100.00;100892.88;5077867;28;20276;-51
2022/05/28 01:03:16;;;;;;;9.23;2.33;;;;;;;9.00;100.00;100891.19;5076825;28;20234;-52
2022/05/28 01:05:46;;;;;;;5.57;1.60;;;;;;;8.98;100.00;100885.91;5072714;28;20591;-52
2022/05/28 01:08:15;;;;;;;4.67;1.70;;;;;;;9.04;100.00;100870.25;5076527;28;20235;-51
2022/05/28 01:10:48;;;;;;;4.50;1.60;;;;;;;9.06;100.00;100873.78;5077249;28;20264;-52
2022/05/28 01:13:22;;;;;;;8.17;1.80;;;;;;;9.13;100.00;100873.84;5081154;28;20233;-52
2022/05/28 01:15:53;;;;;;;5.53;1.67;;;;;;;9.12;100.00;100877.28;5082485;28;20317;-51
2022/05/28 01:18:21;;;;;;;7.43;1.60;;;;;;;9.12;100.00;100874.69;5075432;28;20242;-52
2022/05/28 01:20:51;;;;;;;3.83;1.33;;;;;;;9.10;100.00;100879.03;5076300;28;20276;-52
2022/05/28 01:23:23;;;;;;;4.27;1.60;;;;;;;9.05;100.00;100872.00;5076843;28;20242;-53
2022/05/28 01:25:57;;;;;;;3.83;1.47;;;;;;;9.03;100.00;100863.28;5070668;28;20239;-51
2022/05/28 01:28:28;;;;;;;3.73;1.50;;;;;;;9.02;100.00;100866.78;5070253;28;20222;-52
2022/05/28 01:30:55;;;;;;;2.60;1.20;;;;;;;8.97;100.00;100863.22;5077313;28;20230;-52
2022/05/28 01:33:22;;;;;;;4.10;2.20;;;;;;;9.05;100.00;100861.53;5068866;28;20281;-51
2022/05/28 01:35:49;;;;;;;9.87;2.17;;;;;;;9.06;100.00;100872.91;5073309;28;20229;-52
2022/05/28 01:38:17;;;;;;;2.50;1.87;;;;;;;8.95;100.00;100845.75;5077148;28;20793;-53
2022/05/28 01:40:44;;;;;;;10.03;1.97;;;;;;;8.91;100.00;100857.06;5077512;28;20239;-53
2022/05/28 01:43:13;;;;;;;5.17;2.00;;;;;;;8.85;100.00;100855.28;5080289;28;20273;-52
2022/05/28 01:45:44;;;;;;;5.70;2.03;;;;;;;8.93;100.00;100853.59;5080609;28;20230;-52
2022/05/28 01:48:11;;;;;;;6.93;1.60;;;;;;;9.05;100.00;100844.94;5072589;28;20946;-52
2022/05/28 01:50:40;;;;;;;4.27;1.40;;;;;;;8.99;100.00;100843.19;5079782;28;20226;-52
2022/05/28 01:53:08;;;;;;;8.13;1.87;;;;;;;8.98;100.00;100838.78;5071116;28;20258;-51
2022/05/28 01:55:38;;;;;;;7.43;2.13;;;;;;;9.03;100.00;100831.84;5072681;28;20578;-51
2022/05/28 01:58:06;;;;;;;6.33;2.07;;;;;;;9.05;100.00;100824.00;5070925;28;20758;-51
2022/05/28 02:00:32;;;;;;;8.57;1.83;;;;;;;9.06;100.00;100831.00;5073790;28;20234;-52
2022/05/28 02:03:01;;;;;;;3.00;1.90;;;;;;;9.11;100.00;100833.66;5076634;28;20299;-52
2022/05/28 02:05:27;;;;;;;4.83;1.43;;;;;;;9.13;100.00;100827.56;5080855;28;20227;-52
2022/05/28 02:07:54;;;;;;;6.60;1.43;;;;;;;9.07;100.00;100824.91;5075816;28;20234;-52
2022/05/28 02:10:22;;;;;;;9.93;1.50;;;;;;;8.97;100.00;100821.31;5077328;28;20242;-50
2022/05/28 02:12:54;;;;;;;6.40;1.87;;;;;;;9.13;100.00;100806.59;5073816;28;20256;-51
2022/05/28 02:15:35;;;;;;;5.50;1.53;;;;;;;9.03;100.00;100821.38;5065740;28;20243;-52
2022/05/28 02:18:13;;;;;;;5.03;1.97;;;;;;;9.05;100.00;100809.16;5075844;28;20283;-51
2022/05/28 02:20:46;;;;;;;5.63;1.53;;;;;;;9.14;100.00;100808.34;5081083;28;20279;-52
2022/05/28 02:23:15;;;;;;;3.30;1.20;;;;;;;9.06;100.00;100810.91;5066419;28;20239;-52
2022/05/28 02:25:46;;;;;;;3.47;1.63;;;;;;;8.99;100.00;100808.25;5074268;28;20273;-52
2022/05/28 02:28:12;;;;;;;7.13;2.67;;;;;;;8.87;100.00;100809.03;5072135;28;20231;-52
2022/05/28 02:30:46;;;;;;;6.30;1.97;;;;;;;8.95;100.00;100803.84;5081245;28;20265;-53
2022/05/28 02:33:14;;;;;;;4.07;1.20;;;;;;;8.97;100.00;100808.22;5076962;28;20231;-52
2022/05/28 02:35:40;;;;;;;5.67;1.87;;;;;;;9.01;100.00;100804.75;5084993;28;20252;-52
2022/05/28 02:38:07;;;;;;;6.47;1.90;;;;;;;9.01;100.00;100790.78;5081624;28;20245;-52
2022/05/28 02:40:33;;;;;;;7.10;2.00;;;;;;;8.84;100.00;100791.59;5076864;28;20513;-53
2022/05/28 02:42:59;;;;;;;6.73;1.70;;;;;;;8.81;100.00;100788.06;5079975;28;20254;-55
2022/05/28 02:45:26;;;;;;;5.73;1.73;;;;;;;8.82;100.00;100795.91;5085337;28;20230;-52
2022/05/28 02:47:52;;;;;;;10.93;3.93;;;;;;;8.91;100.00;100795.09;5070256;28;20230;-53
2022/05/28 02:50:20;;;;;;;3.33;1.83;;;;;;;8.90;100.00;100798.59;5076837;28;20723;-52
2022/05/28 02:52:46;;;;;;;3.57;1.30;;;;;;;9.00;100.00;100783.81;5080134;28;20268;-52
2022/05/28 02:55:13;;;;;;;7.03;2.10;;;;;;;9.02;100.00;100782.06;5082925;28;20240;-51
2022/05/28 02:57:39;;;;;;;7.07;2.33;;;;;;;9.03;100.00;100794.31;5075919;28;20279;-51
2022/05/28 03:00:07;;;;;;;4.17;1.70;;;;;;;9.06;100.00;100779.50;5069243;28;20634;-53
2022/05/28 03:02:34;;;;;;;3.27;1.53;;;;;;;9.08;100.00;100775.13;5078180;28;20235;-50
2022/05/28 03:05:00;;;;;;;5.53;1.57;;;;;;;9.02;100.00;100777.72;5073840;28;20227;-52
2022/05/28 03:07:28;;;;;;;5.33;2.03;;;;;;;9.10;100.00;100769.03;5078306;28;20238;-52
2022/05/28 03:09:54;;;;;;;4.50;1.57;;;;;;;9.01;100.00;100780.31;5085406;28;20246;-52
2022/05/28 03:12:21;;;;;;;4.73;1.60;;;;;;;9.01;100.00;100769.84;5079564;28;20239;-52
2022/05/28 03:14:47;;;;;;;3.27;1.60;;;;;;;8.86;100.00;100762.78;5076300;28;20284;-51
2022/05/28 03:17:13;;;;;;;4.07;1.30;;;;;;;8.91;100.00;100762.81;5077405;28;20230;-52
2022/05/28 03:19:40;;;;;;;5.00;1.67;;;;;;;8.96;100.00;100766.34;5072428;28;20315;-54
2022/05/28 03:22:06;;;;;;;5.37;1.97;;;;;;;8.96;100.00;100769.84;5082238;28;20246;-51
2022/05/28 03:24:34;;;;;;;6.77;1.73;;;;;;;8.92;100.00;100764.56;5080429;28;20732;-52
2022/05/28 03:27:00;;;;;;;9.10;1.83;;;;;;;9.06;100.00;100762.91;5085297;28;20238;-52
2022/05/28 03:29:27;;;;;;;6.57;2.07;;;;;;;9.07;100.00;100765.53;5072417;28;20266;-51
2022/05/28 03:31:53;;;;;;;6.77;1.40;;;;;;;9.06;100.00;100762.91;5069853;28;20231;-52
2022/05/28 03:34:19;;;;;;;4.90;1.80;;;;;;;9.11;100.00;100753.31;5079943;28;20292;-52
2022/05/28 03:36:46;;;;;;;5.70;2.40;;;;;;;9.15;100.00;100755.09;5075752;28;20295;-52
2022/05/28 03:39:12;;;;;;;4.83;1.37;;;;;;;9.16;100.00;100759.47;5072188;28;20263;-51
2022/05/28 03:41:40;;;;;;;7.00;1.73;;;;;;;9.20;100.00;100763.00;5067234;28;20281;-51
2022/05/28 03:44:07;;;;;;;5.37;1.43;;;;;;;9.20;100.00;100763.00;5066755;28;20293;-52
2022/05/28 03:46:36;;;;;;;3.93;1.23;;;;;;;9.27;100.00;100756.91;5083315;28;20719;-52
2022/05/28 03:49:05;;;;;;;8.33;1.53;;;;;;;9.23;100.00;100749.88;5082991;28;20235;-52
2022/05/28 03:51:31;;;;;;;2.53;1.50;;;;;;;9.26;100.00;100756.00;5073507;28;20619;-54
2022/05/28 03:53:58;;;;;;;5.47;1.70;;;;;;;9.22;100.00;100746.38;5082998;28;20227;-51
2022/05/28 03:56:27;;;;;;;5.03;1.57;;;;;;;9.31;100.00;100753.44;5077953;28;20238;-52
2022/05/28 03:58:55;;;;;;;5.07;2.17;;;;;;;9.28;100.00;100749.03;5080300;28;20295;-52
2022/05/28 04:01:22;;;;;;;5.77;1.77;;;;;;;9.25;100.00;100737.69;5078478;28;20633;-51
2022/05/28 04:03:48;;;;;;;2.67;1.47;;;;;;;9.36;100.00;100741.22;5083909;28;20258;-51
2022/05/28 04:06:14;;;;;;;6.07;1.73;;;;;;;9.35;100.00;100757.81;5073164;28;20266;-51
2022/05/28 04:08:41;;;;;;;3.77;1.77;;;;;;;9.36;100.00;100740.34;5074644;28;20239;-52
2022/05/28 04:11:07;;;;;;;3.27;1.60;;;;;;;9.39;100.00;100746.47;5074937;28;20226;-50
2022/05/28 04:13:34;;;;;;;5.73;1.70;;;;;;;9.47;100.00;100749.97;5078869;28;20686;-51
2022/05/28 04:16:01;;;;;;;3.57;1.47;;;;;;;9.50;100.00;100754.38;5070321;28;20257;-52
2022/05/28 04:18:28;;;;;;;6.67;1.53;;;;;;;9.47;99.48;100744.75;5071207;28;20709;-53
2022/05/28 04:20:54;;;;;;;4.70;1.63;;;;;;;9.49;100.00;100752.63;5078480;28;20234;-52
2022/05/28 04:23:20;;;;;;;6.13;1.40;;;;;;;9.51;100.00;100756.09;5072494;28;20261;-51
2022/05/28 04:25:47;;;;;;;2.33;1.60;;;;;;;9.36;100.00;100764.78;5080205;28;20291;-51
2022/05/28 04:28:13;;;;;;;5.17;1.73;;;;;;;9.30;100.00;100756.91;5077491;28;20238;-51
2022/05/28 04:30:40;;;;;;;8.70;2.80;;;;;;;9.26;100.00;100755.13;5080621;28;20287;-52
2022/05/28 04:33:07;;;;;;;7.30;1.70;;;;;;;9.08;100.00;100771.63;5074578;28;21005;-51
2022/05/28 04:35:34;;;;;;;8.37;1.80;;;;;;;8.91;100.00;100778.50;5072521;28;20280;-52
2022/05/28 04:38:00;;;;;;;6.50;2.47;;;;;;;8.71;100.00;100791.47;5072145;28;20280;-55
2022/05/28 04:40:27;;;;;;;6.23;2.63;;;;;;;8.74;100.00;100781.91;5073766;28;20262;-53
2022/05/28 04:42:53;;;;;;;4.40;1.57;;;;;;;8.47;100.00;100792.16;5067940;28;20238;-52
2022/05/28 04:45:20;;;;;;;3.13;1.47;;;;;;;8.39;100.00;100788.56;5077336;28;20287;-54
2022/05/28 04:47:46;;;;;;;1.70;1.60;;;;;;;8.26;100.00;100791.06;5070821;28;20304;-53
2022/05/28 04:50:14;;;;;;;4.97;1.87;;;;;;;8.28;100.00;100793.69;5079110;28;20258;-54
2022/05/28 04:52:41;;;;;;;3.33;2.47;;;;;;;8.27;100.00;100789.31;5076090;28;20222;-53
2022/05/28 04:55:08;;;;;;;4.07;2.50;;;;;;;8.10;100.00;100787.41;5076984;28;20219;-54
2022/05/28 04:57:35;;;;;;;3.60;2.47;;;;;;;8.07;100.00;100787.41;5083025;28;20231;-53
2022/05/28 05:00:02;;;;;;;5.13;2.30;;;;;;;8.08;100.00;100783.94;5070599;28;20699;-54
2022/05/28 05:02:28;;;;;;;7.03;2.47;;;;;;;8.09;100.00;100783.06;5077367;28;20266;-54
2022/05/28 05:04:56;;;;;;;5.50;2.47;;;;;;;8.20;100.00;100788.38;5065884;28;20235;-54
2022/05/28 05:07:24;;;;;;;3.83;2.53;;;;;;;8.03;100.00;100784.72;5084222;28;20357;-54
2022/05/28 05:09:50;;;;;;;6.83;1.87;;;;;;;8.17;100.00;100782.25;5076134;28;20245;-53
2022/05/28 05:12:18;;;;;;;7.77;2.13;;;;;;;8.15;100.00;100787.47;5080863;28;20227;-53
2022/05/28 05:14:44;;;;;;;4.40;2.10;;;;;;;8.10;100.00;100797.00;5072819;28;20230;-55
2022/05/28 05:17:10;;;;;;;5.17;2.10;;;;;;;8.14;100.00;100785.69;5075248;28;20644;-53
2022/05/28 05:19:37;;;;;;;5.80;2.30;;;;;;;8.24;100.00;100794.53;5071631;28;20304;-54
2022/05/28 05:22:04;;;;;;;5.17;2.03;;;;;;;8.39;100.00;100786.88;5066462;28;20247;-53
2022/05/28 05:24:33;;;;;;;3.83;2.37;;;;;;;8.44;100.00;100797.38;5080240;28;20288;-53
2022/05/28 05:27:00;;;;;;;2.13;1.57;;;;;;;8.48;100.00;100786.06;5069781;28;20878;-54
2022/05/28 05:29:26;;;;;;;5.87;2.33;;;;;;;8.43;100.00;100787.78;5085387;28;20231;-54
2022/05/28 05:31:53;;;;;;;3.17;1.50;;;;;;;8.43;100.00;100780.78;5071955;28;20767;-53
2022/05/28 05:34:19;;;;;;;3.43;1.43;;;;;;;8.38;100.00;100792.94;5074749;28;20281;-51
2022/05/28 05:36:45;;;;;;;2.33;1.37;;;;;;;8.39;100.00;100791.19;5077764;28;20256;-53
2022/05/28 05:39:12;;;;;;;5.17;2.03;;;;;;;8.46;100.00;100786.06;5069467;28;20300;-53
2022/05/28 05:41:40;;;;;;;2.90;1.60;;;;;;;8.48;100.00;100783.44;5075139;28;20228;-53
2022/05/28 05:44:07;;;;;;;3.87;1.50;;;;;;;8.58;100.00;100780.91;5071761;28;20227;-53
2022/05/28 05:46:33;;;;;;;3.67;1.87;;;;;;;8.64;100.00;100792.31;5080979;28;20219;-52
2022/05/28 05:49:00;;;;;;;4.33;1.70;;;;;;;8.62;100.00;100797.50;5069705;28;20238;-53
2022/05/28 05:51:28;;;;;;;3.97;2.17;;;;;;;8.74;100.00;100784.53;5077862;28;20262;-52
2022/05/28 05:53:55;;;;;;;3.23;1.33;;;;;;;8.79;100.00;100800.25;5080523;28;20728;-51
2022/05/28 05:56:21;;;;;;;3.47;1.50;;;;;;;8.90;100.00;100793.34;5074752;28;20235;-53
2022/05/28 05:58:49;;;;;;;3.80;1.57;;;;;;;8.97;100.00;100807.38;5074845;28;20776;-53
2022/05/28 06:01:15;;;;;;;5.70;1.00;;;;;;;8.89;100.00;100823.03;5075298;28;20234;-52
2022/05/28 06:03:44;;;;;;;2.93;1.30;;;;;;;8.78;100.00;100803.75;5082993;28;20260;-53
2022/05/28 06:06:13;;;;;;;7.00;1.43;;;;;;;9.02;100.00;100805.63;5078591;28;20242;-52
2022/05/28 06:08:39;;;;;;;5.33;1.43;;;;;;;9.06;100.00;100797.81;5072341;28;20292;-52
2022/05/28 06:11:06;;;;;;;6.10;1.77;;;;;;;9.16;100.00;100813.59;5081052;28;20276;-51
2022/05/28 06:13:32;;;;;;;3.73;1.70;;;;;;;9.16;100.00;100809.25;5076065;28;20253;-52
2022/05/28 06:16:00;;;;;;;6.47;2.23;;;;;;;9.09;100.00;100820.56;5078879;28;20234;-52
2022/05/28 06:18:26;;;;;;;2.33;1.90;;;;;;;8.92;100.00;100823.06;5069389;28;20230;-51
2022/05/28 06:20:54;;;;;;;3.70;1.57;;;;;;;9.03;100.00;100821.38;5074310;28;20251;-52
2022/05/28 06:23:22;;;;;;;3.57;1.30;;;;;;;9.08;100.00;100824.88;5068068;28;20242;-51
2022/05/28 06:25:48;;;;;;;4.53;1.60;;;;;;;9.13;100.00;100830.19;5066406;28;20831;-52
2022/05/28 06:28:15;;;;;;;2.60;1.10;;;;;;;9.31;100.00;100821.56;5076143;28;20613;-50
2022/05/28 06:30:43;;;;;;;3.33;1.27;;;;;;;9.41;100.00;100823.34;5078915;28;20226;-53
2022/05/28 06:33:11;;;;;;;2.17;1.37;;;;;;;9.48;100.00;100824.25;5073393;28;20603;-53
2022/05/28 06:35:38;;;;;;;1.70;1.57;;;;;;;9.61;100.00;100840.91;5079838;28;20577;-53
2022/05/28 06:38:04;;;;;;;2.13;1.47;;;;;;;9.72;100.00;100829.63;5074837;28;20319;-53
2022/05/28 06:40:32;;;;;;;6.50;1.37;;;;;;;9.69;99.35;100821.72;5074534;28;20230;-53
2022/05/28 06:42:58;;;;;;;3.77;1.60;;;;;;;9.72;100.00;100828.72;5070175;28;20233;-53
2022/05/28 06:45:25;;;;;;;1.20;1.10;;;;;;;9.90;100.00;100817.41;5076520;28;20265;-53
2022/05/28 06:47:52;;;;;;;2.33;1.47;;;;;;;9.98;100.00;100806.09;5074851;28;20678;-53
2022/05/28 06:53:07;;;;;;;2.93;1.30;;;;;;;10.19;100.00;100820.13;5076337;28;20276;-53
2022/05/28 06:55:34;;;;;;;4.10;1.60;;;;;;;10.22;99.96;100821.00;5076162;28;20242;-51
2022/05/28 06:58:00;;;;;;;8.73;1.73;;;;;;;10.34;97.37;100809.69;5062277;28;20247;-51
2022/05/28 07:00:27;;;;;;;5.70;1.83;;;;;;;10.40;96.31;100814.06;5082353;28;20234;-51
2022/05/28 07:02:53;;;;;;;4.23;1.93;;;;;;;10.38;95.21;100816.66;5079952;28;20235;-51
2022/05/28 07:05:21;;;;;;;3.63;1.23;;;;;;;10.45;94.92;100810.56;5071166;28;20239;-50
2022/05/28 07:07:47;;;;;;;9.17;1.77;;;;;;;10.49;95.16;100809.72;5074995;28;20968;-51
2022/05/28 07:10:13;;;;;;;2.43;1.30;;;;;;;10.64;96.51;100813.22;5081302;28;20235;-53
2022/05/28 07:12:40;;;;;;;4.47;1.40;;;;;;;10.68;93.21;100809.72;5074277;28;20601;-52
2022/05/28 07:15:08;;;;;;;9.53;2.00;;;;;;;10.87;92.66;100814.06;5076532;28;20903;-51
2022/05/28 07:17:34;;;;;;;2.57;1.43;;;;;;;11.09;94.29;100822.81;5068635;28;20472;-51
2022/05/28 07:20:01;;;;;;;3.93;1.60;;;;;;;11.08;92.25;100822.78;5072520;28;20226;-56
2022/05/28 07:22:29;;;;;;;1.93;1.13;;;;;;;11.01;89.98;100816.66;5076517;28;20242;-52
2022/05/28 07:24:56;;;;;;;3.30;1.13;;;;;;;11.08;91.41;100807.03;5082672;28;20250;-51
2022/05/28 07:27:23;;;;;;;3.20;1.43;;;;;;;11.17;91.09;100814.91;5077694;28;20279;-53
2022/05/28 07:29:49;;;;;;;4.80;2.20;;;;;;;11.15;91.49;100811.38;5075650;28;20257;-51
2022/05/28 07:32:15;;;;;;;1.40;1.03;;;;;;;11.18;89.93;100814.88;5069455;28;20316;-53
2022/05/28 07:34:42;;;;;;;7.53;1.60;;;;;;;11.25;87.69;100807.88;5085440;28;20230;-52
2022/05/28 07:37:08;;;;;;;2.97;1.70;;;;;;;11.15;87.24;100814.88;5069833;28;20361;-51
2022/05/28 07:39:36;;;;;;;3.40;1.40;;;;;;;11.08;85.78;100817.53;5079420;28;20438;-51
2022/05/28 07:42:04;;;;;;;2.97;1.40;;;;;;;11.27;86.90;100821.88;5073199;28;20235;-51
2022/05/28 07:44:30;;;;;;;2.77;1.47;;;;;;;11.21;86.29;100817.50;5074819;28;20680;-51
2022/05/28 07:46:57;;;;;;;2.77;1.10;;;;;;;11.34;87.81;100823.63;5075893;28;20647;-52
2022/05/28 07:49:24;;;;;;;3.03;1.20;;;;;;;11.39;86.79;100815.72;5074115;28;20231;-52
2022/05/28 07:51:50;;;;;;;4.50;1.30;;;;;;;11.39;85.04;100803.44;5072653;28;20227;-52
2022/05/28 07:54:17;;;;;;;3.33;2.10;;;;;;;11.48;84.30;100807.81;5076716;28;20269;-52
2022/05/28 07:56:44;;;;;;;6.43;1.90;;;;;;;11.55;84.83;100809.53;5075159;28;20233;-52
2022/05/28 07:59:11;;;;;;;6.30;1.60;;;;;;;11.71;82.17;100828.75;5075564;28;20270;-51
2022/05/28 08:01:39;;;;;;;2.93;1.20;;;;;;;11.70;80.40;100805.97;5080156;28;20254;-53
2022/05/28 08:04:05;;;;;;;6.13;2.47;;;;;;;11.85;80.90;100805.91;5073313;28;20545;-53
2022/05/28 08:06:32;;;;;;;3.23;1.77;;;;;;;11.97;80.62;100809.34;5073680;28;20293;-53
2022/05/28 08:08:59;;;;;;;2.97;1.45;;;;;;;12.09;79.57;100810.16;5080105;28;20818;-52
2022/05/28 08:11:25;;;;;;;5.65;1.60;;;;;;;12.13;77.70;100813.66;5077882;28;20648;-52
2022/05/28 08:13:53;;;;;;;2.50;1.43;;;;;;;12.41;75.40;100809.94;5077222;28;20711;-51
2022/05/28 08:16:20;;;;;;;3.03;1.53;;;;;;;12.45;76.17;100807.28;5078756;28;20238;-54
2022/05/28 08:18:46;;;;;;;7.15;1.25;;;;;;;12.27;75.01;100808.31;5077252;28;20709;-52
2022/05/28 08:23:57;;;;;;;4.15;1.48;;;;;;;12.29;74.39;100812.69;5083148;28;20700;-52
2022/05/28 08:26:24;;;;;;;3.63;1.40;;;;;;;12.23;72.44;100812.72;5067956;28;20259;-53
2022/05/28 08:28:53;;;;;;;3.67;1.65;;;;;;;12.08;74.07;100808.44;5072573;28;20305;-52
2022/05/28 08:31:20;;;;;;;4.72;1.42;;;;;;;12.16;75.50;100811.88;5067101;28;20227;-51
2022/05/28 08:33:47;;;;;;;3.03;1.67;;;;;;;12.13;74.33;100829.44;5080612;28;20431;-51
2022/05/28 08:36:14;;;;;;;4.80;1.92;;;;;;;12.23;74.32;100820.59;5081236;28;20678;-51
2022/05/28 08:38:40;;;;;;;4.35;1.73;;;;;;;12.28;73.64;100821.44;5067604;28;20239;-51
2022/05/28 08:41:09;;;;;;;3.72;1.50;;;;;;;12.27;72.91;100821.47;5078065;28;20626;-50
2022/05/28 08:43:37;;;;;;;6.35;1.80;;;;;;;12.49;72.91;100820.41;5075415;28;20278;-52
2022/05/28 08:46:07;;;;;;;6.50;2.10;;;;;;;12.83;70.87;100821.03;5082720;28;20227;-51
2022/05/28 08:48:38;;;;;;;2.35;1.10;;;;;;;12.92;69.28;100813.91;5076976;28;20242;-52
2022/05/28 08:51:07;;;;;;;2.72;1.38;;;;;;;12.80;69.88;100818.41;5080348;28;20230;-52
2022/05/28 08:53:36;;;;;;;8.15;1.88;;;;;;;12.56;73.53;100834.41;5074008;28;20782;-53
2022/05/28 08:56:02;;;;;;;5.28;1.70;;;;;;;12.25;72.34;100831.13;5070605;28;20501;-51
2022/05/28 08:58:31;;;;;;;2.17;1.40;;;;;;;12.21;73.16;100826.75;5080180;28;20254;-52
2022/05/28 09:01:02;;;;;;;4.88;2.15;;;;;;;12.60;73.01;100836.13;5077073;28;20238;-50
2022/05/28 09:03:32;;;;;;;6.68;2.03;;;;;;;12.94;70.63;100825.31;5074246;28;20361;-51
2022/05/28 09:06:00;;;;;;;6.23;1.23;;;;;;;13.00;67.42;100817.38;5076369;28;20254;-53
2022/05/28 09:08:28;;;;;;;4.72;1.08;;;;;;;13.03;65.96;100822.59;5070649;28;20280;-52
2022/05/28 09:10:57;;;;;;;3.60;1.40;;;;;;;12.96;64.85;100836.75;5078737;28;20311;-51
2022/05/28 09:13:29;;;;;;;5.57;1.92;;;;;;;12.79;65.67;100832.47;5080311;28;21248;-53
2022/05/28 09:15:57;;;;;;;4.28;1.73;;;;;;;12.98;65.64;100856.03;5078782;28;20246;-53
2022/05/28 09:18:24;;;;;;;4.97;1.70;;;;;;;12.87;63.17;100843.81;5074526;28;20250;-51
2022/05/28 09:20:51;;;;;;;3.03;1.90;;;;;;;12.94;62.84;100849.03;5073829;28;20235;-50
2022/05/28 09:23:18;;;;;;;6.68;2.03;;;;;;;13.01;64.55;100840.19;5081134;28;20230;-53
2022/05/28 09:25:46;;;;;;;5.38;1.65;;;;;;;12.94;65.25;100846.41;5077209;28;20235;-52
2022/05/28 09:28:22;;;;;;;4.25;1.55;;;;;;;13.02;62.54;100841.94;5071228;28;20249;-52
2022/05/28 09:30:56;;;;;;;4.75;1.45;;;;;;;13.23;61.04;100848.75;5076567;28;20234;-52
2022/05/28 09:33:49;;;;;;;3.00;1.33;;;;;;;13.25;62.44;100841.75;5075063;28;20782;-52
2022/05/28 09:36:21;;;;;;;3.10;1.42;;;;;;;13.30;61.94;100847.84;5064998;28;20226;-51
2022/05/28 09:38:56;;;;;;;2.13;1.38;;;;;;;13.33;61.93;100839.91;5077189;28;20277;-51
2022/05/28 09:41:43;;;;;;;4.35;2.53;;;;;;;13.88;61.55;100833.97;5070741;28;20258;-51
2022/05/28 09:44:16;;;;;;;4.45;1.35;;;;;;;14.33;58.53;100834.25;5071824;28;20246;-51
2022/05/28 09:46:45;;;;;;;3.15;1.55;;;;;;;14.33;58.26;100834.25;5078105;28;20739;-52
2022/05/28 09:49:13;;;;;;;5.35;1.58;;;;;;;14.25;56.47;100834.34;5073933;28;20768;-52
2022/05/28 09:51:51;;;;;;;7.63;1.55;;;;;;;14.11;56.53;100838.97;5075078;28;20231;-52
2022/05/28 09:54:21;;;;;;;4.72;2.25;;;;;;;13.83;56.58;100830.53;5079714;28;20626;-52
2022/05/28 09:56:52;;;;;;;5.07;1.88;;;;;;;13.55;58.98;100851.97;5077555;28;20222;-52
2022/05/28 09:59:22;;;;;;;3.50;1.50;;;;;;;13.46;62.18;100853.84;5071981;22;20240;-52
2022/05/28 10:01:53;;;;;;;3.97;1.30;;;;;;;13.15;63.49;100856.75;5063934;28;20284;-54
2022/05/28 10:04:31;;;;;;;2.97;1.17;;;;;;;13.28;65.45;100860.19;5056149;28;20254;-52
2022/05/28 10:07:01;;;;;;;4.25;1.45;;;;;;;13.25;65.38;100855.81;5065263;28;20376;-52
2022/05/28 10:09:29;;;;;;;2.58;1.63;;;;;;;13.82;64.17;100845.47;5059401;28;20231;-53
2022/05/28 10:11:59;;;;;;;4.43;1.65;;;;;;;14.04;61.89;100847.84;5045627;28;20238;-53
2022/05/28 10:14:29;;;;;;;4.72;2.15;;;;;;;14.11;62.03;100849.53;5049244;28;20300;-53
2022/05/28 10:16:57;;;;;;;4.55;1.77;;;;;;;14.13;61.69;100855.63;5047064;28;20698;-52
2022/05/28 10:19:28;;;;;;;3.65;1.55;;;;;;;14.49;61.83;100848.06;5052496;28;20783;-52
2022/05/28 10:21:57;;;;;;;4.70;1.70;;;;;;;14.76;59.86;100849.44;5054092;28;20259;-53
2022/05/28 10:24:27;;;;;;;7.03;1.92;;;;;;;15.26;60.48;100845.91;5055694;28;20238;-52
2022/05/28 10:26:54;;;;;;;4.18;1.75;;;;;;;15.62;59.42;100842.56;5052423;28;20276;-52
2022/05/28 10:29:27;;;;;;;4.07;1.55;;;;;;;15.86;56.50;100831.53;5056369;28;20826;-51
2022/05/28 10:31:53;;;;;;;6.32;1.67;;;;;;;15.94;54.09;100828.72;5052029;28;20258;-52
2022/05/28 10:34:30;;;;;;;4.95;1.55;;;;;;;16.23;54.95;100831.59;5053716;28;20609;-50
2022/05/28 10:37:07;;;;;;;3.38;1.77;;;;;;;16.64;53.49;100835.06;5053200;28;20665;-53
2022/05/28 10:39:37;;;;;;;8.68;1.98;;;;;;;16.13;50.42;100824.75;5050190;28;20809;-53
2022/05/28 10:42:04;;;;;;;3.80;1.70;;;;;;;16.02;51.71;100829.44;5057350;28;20231;-52
2022/05/28 10:44:31;;;;;;;3.42;1.60;;;;;;;15.96;53.51;100827.78;5055601;28;20308;-52
2022/05/28 10:47:07;;;;;;;2.42;1.13;;;;;;;15.76;52.97;100832.66;5059272;28;20250;-53
2022/05/28 10:49:39;;;;;;;3.17;1.48;;;;;;;15.69;54.37;100821.31;5061276;28;20257;-54
2022/05/28 10:52:14;;;;;;;6.25;2.33;;;;;;;15.67;53.57;100833.69;5050670;28;20228;-52
2022/05/28 10:54:52;;;;;;;4.53;1.92;;;;;;;15.19;54.24;100833.69;5057629;28;20308;-53
2022/05/28 10:57:48;;;;;;;5.55;2.47;;;;;;;15.02;53.77;100841.06;5063070;28;20239;-52
2022/05/28 11:00:16;;;;;;;5.65;1.85;;;;;;;14.77;53.65;100841.47;5062910;28;20231;-51
2022/05/28 11:03:05;;;;;;;6.68;3.78;;;;;;;14.92;53.68;100832.44;5054906;28;20672;-52
2022/05/28 11:05:51;;;;;;;6.13;2.03;;;;;;;15.28;51.87;100822.97;5060294;28;20231;-52
2022/05/28 11:08:25;;;;;;;5.20;3.20;;;;;;;15.97;49.92;100826.03;5056078;28;20231;-51
2022/05/28 11:11:07;;;;;;;2.72;1.42;;;;;;;16.67;48.72;100820.84;5060159;28;20231;-54
2022/05/28 11:13:47;;;;;;;4.72;3.00;;;;;;;16.83;47.12;100822.22;5066142;28;20882;-51
2022/05/28 11:16:29;;;;;;;4.55;1.70;;;;;;;16.54;46.35;100822.06;5066769;28;20361;-51
2022/05/28 11:19:08;;;;;;;5.80;1.20;;;;;;;16.28;47.33;100838.56;5054100;28;20747;-52
2022/05/28 11:21:58;;;;;;;4.10;1.95;;;;;;;16.76;46.44;100825.09;5058331;28;20308;-52
2022/05/28 11:24:39;;;;;;;7.30;2.65;;;;;;;17.27;45.23;100814.00;5060072;28;20257;-52
2022/05/28 11:27:12;;;;;;;4.40;1.58;;;;;;;17.12;45.10;100813.50;5058675;28;20237;-52
2022/05/28 11:29:48;;;;;;;5.03;1.60;;;;;;;17.13;45.23;100809.97;5060849;28;20277;-50
2022/05/28 11:32:18;;;;;;;4.72;1.88;;;;;;;17.38;44.87;100817.25;5059577;28;20243;-54
2022/05/28 11:34:49;;;;;;;5.20;1.63;;;;;;;17.95;43.33;100821.81;5061558;28;20227;-50
2022/05/28 11:37:18;;;;;;;5.25;1.70;;;;;;;17.96;43.28;100818.25;5055838;28;20251;-53